Pagina principale
METAR-TAF:

METAR-TAF

Aeroporti :

Aeroporto di Treviso-Istrana

Treviso, Italia

latitudine: 45-41N, longitudine: 012-06E, altezza: 45 m

Osservazione

Il bollettino è stato emesso 46 minuti fa, alle 19:55 UTC
Vento 3 kt da nord-est
Temperature 13°C
Umidità 77%
Pressione 1019 hPa
Visibilità 10 km o più
nessuna nube inferiore a 1500 m e nessun cumulonembo

METAR: LIPS 211955Z 05003KT CAVOK 13/09 Q1019 RMK BKN BKN200 VIS MIN 9999 WIND THR26 00000KT WIND THR08 05004KT BLU

Ora: 22:41 (20:41 UTC)

Previsione

Il bollettino è stato emesso 41 minuti fa, alle 20:00 UTC
Previsione valida dal 21 alle 21 UTC al 22 alle 06 UTC
Vento 5 kt da est/nord-est
Visibilità 10 km o più
nessuna nube inferiore a 1500 m e nessun cumulonembo
Probabilità 40% :
Temporaneamente
dal 22 alle 00 UTC al 22 alle 06 UTC
Visibilità: 5000 m
foschia

TAF: LIPS 212000Z 2121/2206 06005KT CAVOK PROB40 TEMPO 2200/2206 5000 BR NSC

Osservazioni e previsioni meteorologiche di più di 4000 aeroporti (messaggi METAR e TAF).

Le stazioni disponibili sono rappresentate dai dischi gialli e rossi sulla carta.

Puntare il mouse per vedere il nome della stazione.

Clicca sopra per visualizzare le osservazioni e previsioni meteorologiche.

Per cambiare la mappa : fare clic sui pulsanti verdi con una croce nera per ingrandire, il pulsante verde con un trattino per diminuire, o sulla freccia verde per le mappe adiacenti.


METAR-TAF: